sensor_id;sensor_type;location;lat;lon;timestamp;pressure;altitude;pressure_sealevel;temperature;humidity
30554;BME280;17335;50.720;7.452;2022-12-18T00:01:17;100507.56;;;-6.42;100.00
30554;BME280;17335;50.720;7.452;2022-12-18T00:03:45;100505.88;;;-6.47;100.00
30554;BME280;17335;50.720;7.452;2022-12-18T00:06:12;100495.44;;;-6.52;100.00
30554;BME280;17335;50.720;7.452;2022-12-18T00:08:40;100492.03;;;-6.60;100.00
30554;BME280;17335;50.720;7.452;2022-12-18T00:11:10;100492.03;;;-6.63;100.00
30554;BME280;17335;50.720;7.452;2022-12-18T00:13:36;100498.97;;;-6.57;100.00
30554;BME280;17335;50.720;7.452;2022-12-18T00:16:05;100485.97;;;-6.67;100.00
30554;BME280;17335;50.720;7.452;2022-12-18T00:18:32;100484.28;;;-6.82;100.00
30554;BME280;17335;50.720;7.452;2022-12-18T00:21:00;100486.91;;;-6.80;100.00
30554;BME280;17335;50.720;7.452;2022-12-18T00:23:28;100488.59;;;-6.71;100.00
30554;BME280;17335;50.720;7.452;2022-12-18T00:25:55;100490.38;;;-6.84;100.00
30554;BME280;17335;50.720;7.452;2022-12-18T00:28:24;100476.44;;;-6.75;100.00
30554;BME280;17335;50.720;7.452;2022-12-18T00:30:51;100472.94;;;-6.74;100.00
30554;BME280;17335;50.720;7.452;2022-12-18T00:33:17;100489.53;;;-6.83;100.00
30554;BME280;17335;50.720;7.452;2022-12-18T00:35:44;100479.91;;;-6.76;100.00
30554;BME280;17335;50.720;7.452;2022-12-18T00:38:10;100488.59;;;-6.71;100.00
30554;BME280;17335;50.720;7.452;2022-12-18T00:40:36;100493.66;;;-6.48;100.00
30554;BME280;17335;50.720;7.452;2022-12-18T00:43:03;100498.06;;;-6.52;100.00
30554;BME280;17335;50.720;7.452;2022-12-18T00:45:30;100509.31;;;-6.44;100.00
30554;BME280;17335;50.720;7.452;2022-12-18T00:47:57;100496.34;;;-6.54;100.00
30554;BME280;17335;50.720;7.452;2022-12-18T00:50:24;100488.41;;;-6.41;100.00
30554;BME280;17335;50.720;7.452;2022-12-18T00:52:51;100487.47;;;-6.30;100.00
30554;BME280;17335;50.720;7.452;2022-12-18T00:55:18;100498.75;;;-6.25;100.00
30554;BME280;17335;50.720;7.452;2022-12-18T00:57:44;100503.19;;;-6.36;100.00
30554;BME280;17335;50.720;7.452;2022-12-18T01:00:13;100507.47;;;-6.23;100.00
30554;BME280;17335;50.720;7.452;2022-12-18T01:02:40;100500.44;;;-6.15;100.00
30554;BME280;17335;50.720;7.452;2022-12-18T01:05:09;100492.53;;;-6.09;100.00
30554;BME280;17335;50.720;7.452;2022-12-18T01:07:36;100491.66;;;-6.08;100.00
30554;BME280;17335;50.720;7.452;2022-12-18T01:10:03;100495.13;;;-6.09;100.00
30554;BME280;17335;50.720;7.452;2022-12-18T01:12:30;100478.63;;;-6.14;100.00
30554;BME280;17335;50.720;7.452;2022-12-18T01:14:57;100475.94;;;-6.01;100.00
30554;BME280;17335;50.720;7.452;2022-12-18T01:17:23;100461.88;;;-5.91;100.00
30554;BME280;17335;50.720;7.452;2022-12-18T01:19:50;100473.34;;;-6.06;100.00
30554;BME280;17335;50.720;7.452;2022-12-18T01:22:16;100469.78;;;-5.97;100.00
30554;BME280;17335;50.720;7.452;2022-12-18T01:24:43;100479.41;;;-5.99;100.00
30554;BME280;17335;50.720;7.452;2022-12-18T01:27:09;100473.34;;;-6.06;100.00
30554;BME280;17335;50.720;7.452;2022-12-18T01:29:36;100480.09;;;-5.84;100.00
30554;BME280;17335;50.720;7.452;2022-12-18T01:32:02;100476.69;;;-5.93;100.00
30554;BME280;17335;50.720;7.452;2022-12-18T01:34:29;100481.84;;;-5.82;100.00
30554;BME280;17335;50.720;7.452;2022-12-18T01:36:55;100477.50;;;-5.85;100.00
30554;BME280;17335;50.720;7.452;2022-12-18T01:39:21;100479.38;;;-5.96;100.00
30554;BME280;17335;50.720;7.452;2022-12-18T01:41:48;100477.56;;;-5.91;100.00
30554;BME280;17335;50.720;7.452;2022-12-18T01:44:58;100479.44;;;-6.06;100.00
30554;BME280;17335;50.720;7.452;2022-12-18T01:47:38;100485.59;;;-6.11;100.00
30554;BME280;17335;50.720;7.452;2022-12-18T01:52:52;100481.28;;;-6.15;100.00
30554;BME280;17335;50.720;7.452;2022-12-18T01:55:22;100490.00;;;-6.21;100.00
30554;BME280;17335;50.720;7.452;2022-12-18T01:57:52;100474.44;;;-6.38;100.00
30554;BME280;17335;50.720;7.452;2022-12-18T02:00:21;100477.97;;;-6.44;100.00
30554;BME280;17335;50.720;7.452;2022-12-18T02:02:48;100473.59;;;-6.38;100.00
30554;BME280;17335;50.720;7.452;2022-12-18T02:05:18;100476.28;;;-6.48;100.00
30554;BME280;17335;50.720;7.452;2022-12-18T02:11:00;100471.97;;;-6.56;100.00
30554;BME280;17335;50.720;7.452;2022-12-18T02:19:14;100487.75;;;-6.83;100.00
30554;BME280;17335;50.720;7.452;2022-12-18T02:22:06;100482.53;;;-6.75;100.00
30554;BME280;17335;50.720;7.452;2022-12-18T02:25:11;100486.84;;;-6.72;100.00
30554;BME280;17335;50.720;7.452;2022-12-18T02:27:30;100487.75;;;-6.81;100.00
30554;BME280;17335;50.720;7.452;2022-12-18T02:29:59;100486.91;;;-6.82;100.00
30554;BME280;17335;50.720;7.452;2022-12-18T02:32:31;100488.66;;;-6.90;100.00
30554;BME280;17335;50.720;7.452;2022-12-18T02:35:01;100496.50;;;-6.88;100.00
30554;BME280;17335;50.720;7.452;2022-12-18T02:37:30;100490.41;;;-6.89;100.00
30554;BME280;17335;50.720;7.452;2022-12-18T02:39:59;100487.03;;;-7.05;100.00
30554;BME280;17335;50.720;7.452;2022-12-18T02:42:27;100491.34;;;-7.01;100.00
30554;BME280;17335;50.720;7.452;2022-12-18T02:44:57;100492.19;;;-6.99;100.00
30554;BME280;17335;50.720;7.452;2022-12-18T02:47:31;100498.31;;;-7.09;100.00
30554;BME280;17335;50.720;7.452;2022-12-18T02:50:05;100505.34;;;-7.23;100.00
30554;BME280;17335;50.720;7.452;2022-12-18T03:01:15;100494.94;;;-7.48;100.00
30554;BME280;17335;50.720;7.452;2022-12-18T03:03:55;100493.22;;;-7.58;100.00
30554;BME280;17335;50.720;7.452;2022-12-18T03:06:26;100494.13;;;-7.58;100.00
30554;BME280;17335;50.720;7.452;2022-12-18T03:08:58;100491.50;;;-7.58;100.00
30554;BME280;17335;50.720;7.452;2022-12-18T03:11:27;100488.03;;;-7.69;100.00
30554;BME280;17335;50.720;7.452;2022-12-18T03:14:15;100486.31;;;-7.81;100.00
30554;BME280;17335;50.720;7.452;2022-12-18T03:16:44;100472.44;;;-7.77;100.00
30554;BME280;17335;50.720;7.452;2022-12-18T03:19:16;100474.19;;;-7.94;100.00
30554;BME280;17335;50.720;7.452;2022-12-18T03:21:51;100477.66;;;-7.90;100.00
30554;BME280;17335;50.720;7.452;2022-12-18T03:24:19;100486.34;;;-8.05;100.00
30554;BME280;17335;50.720;7.452;2022-12-18T03:26:50;100482.88;;;-8.20;100.00
30554;BME280;17335;50.720;7.452;2022-12-18T03:32:11;100475.91;;;-8.01;100.00
30554;BME280;17335;50.720;7.452;2022-12-18T03:34:42;100468.97;;;-8.25;100.00
30554;BME280;17335;50.720;7.452;2022-12-18T03:37:10;100477.66;;;-8.21;100.00
30554;BME280;17335;50.720;7.452;2022-12-18T03:39:37;100471.56;;;-8.16;100.00
30554;BME280;17335;50.720;7.452;2022-12-18T03:42:08;100467.22;;;-8.17;100.00
30554;BME280;17335;50.720;7.452;2022-12-18T03:45:07;100466.34;;;-8.23;100.00
30554;BME280;17335;50.720;7.452;2022-12-18T03:50:27;100449.88;;;-8.47;100.00
30554;BME280;17335;50.720;7.452;2022-12-18T03:55:27;100442.03;;;-8.58;100.00
30554;BME280;17335;50.720;7.452;2022-12-18T03:57:56;100442.06;;;-8.52;100.00
30554;BME280;17335;50.720;7.452;2022-12-18T04:00:24;100448.97;;;-8.40;100.00
30554;BME280;17335;50.720;7.452;2022-12-18T04:02:53;100431.63;;;-8.32;100.00
30554;BME280;17335;50.720;7.452;2022-12-18T04:05:21;100432.50;;;-8.28;100.00
30554;BME280;17335;50.720;7.452;2022-12-18T04:07:49;100424.69;;;-8.11;100.00
30554;BME280;17335;50.720;7.452;2022-12-18T04:10:18;100429.00;;;-8.05;100.00
30554;BME280;17335;50.720;7.452;2022-12-18T04:12:44;100435.09;;;-7.96;100.00
30554;BME280;17335;50.720;7.452;2022-12-18T04:15:11;100433.31;;;-7.81;100.00
30554;BME280;17335;50.720;7.452;2022-12-18T04:17:46;100436.81;;;-7.85;100.00
30554;BME280;17335;50.720;7.452;2022-12-18T04:20:13;100435.06;;;-7.93;100.00
30554;BME280;17335;50.720;7.452;2022-12-18T04:22:39;100443.78;;;-7.90;100.00
30554;BME280;17335;50.720;7.452;2022-12-18T04:25:06;100441.13;;;-7.83;100.00
30554;BME280;17335;50.720;7.452;2022-12-18T04:27:33;100438.50;;;-7.72;100.00
30554;BME280;17335;50.720;7.452;2022-12-18T04:29:59;100445.47;;;-7.71;100.00
30554;BME280;17335;50.720;7.452;2022-12-18T04:32:25;100442.00;;;-7.82;100.00
30554;BME280;17335;50.720;7.452;2022-12-18T04:34:52;100438.50;;;-7.72;100.00
30554;BME280;17335;50.720;7.452;2022-12-18T04:37:18;100452.44;;;-7.85;100.00
30554;BME280;17335;50.720;7.452;2022-12-18T04:39:45;100451.59;;;-7.92;100.00
30554;BME280;17335;50.720;7.452;2022-12-18T04:42:11;100446.38;;;-7.94;100.00
30554;BME280;17335;50.720;7.452;2022-12-18T04:44:38;100435.94;;;-8.01;100.00
30554;BME280;17335;50.720;7.452;2022-12-18T04:47:04;100445.50;;;-8.02;100.00
30554;BME280;17335;50.720;7.452;2022-12-18T04:49:30;100431.59;;;-8.10;100.00
30554;BME280;17335;50.720;7.452;2022-12-18T04:51:57;100429.88;;;-8.14;100.00
30554;BME280;17335;50.720;7.452;2022-12-18T04:54:23;100434.25;;;-8.15;100.00
30554;BME280;17335;50.720;7.452;2022-12-18T04:56:49;100428.13;;;-8.01;100.00
30554;BME280;17335;50.720;7.452;2022-12-18T04:59:16;100423.81;;;-8.16;100.00
30554;BME280;17335;50.720;7.452;2022-12-18T05:01:42;100415.13;;;-8.04;100.00
30554;BME280;17335;50.720;7.452;2022-12-18T05:04:09;100423.81;;;-7.99;100.00
30554;BME280;17335;50.720;7.452;2022-12-18T05:06:36;100424.66;;;-7.99;100.00
30554;BME280;17335;50.720;7.452;2022-12-18T05:09:02;100416.81;;;-7.93;100.00
30554;BME280;17335;50.720;7.452;2022-12-18T05:11:29;100412.47;;;-7.78;100.00
30554;BME280;17335;50.720;7.452;2022-12-18T05:13:55;100415.94;;;-7.73;100.00
30554;BME280;17335;50.720;7.452;2022-12-18T05:16:21;100415.88;;;-7.58;100.00
30554;BME280;17335;50.720;7.452;2022-12-18T05:18:48;100427.09;;;-7.34;100.00
30554;BME280;17335;50.720;7.452;2022-12-18T05:21:14;100416.63;;;-7.23;100.00
30554;BME280;17335;50.720;7.452;2022-12-18T05:23:41;100421.84;;;-7.20;100.00
30554;BME280;17335;50.720;7.452;2022-12-18T05:26:16;100406.97;;;-7.03;100.00
30554;BME280;17335;50.720;7.452;2022-12-18T05:28:43;100405.28;;;-7.18;100.00
30554;BME280;17335;50.720;7.452;2022-12-18T05:31:10;100391.31;;;-7.03;100.00
30554;BME280;17335;50.720;7.452;2022-12-18T05:33:37;100392.22;;;-7.10;100.00
30554;BME280;17335;50.720;7.452;2022-12-18T05:36:06;100393.03;;;-7.03;100.00
30554;BME280;17335;50.720;7.452;2022-12-18T05:38:35;100387.78;;;-7.00;100.00
30554;BME280;17335;50.720;7.452;2022-12-18T05:41:03;100388.56;;;-6.83;100.00
30554;BME280;17335;50.720;7.452;2022-12-18T05:43:31;100384.22;;;-6.84;100.00
30554;BME280;17335;50.720;7.452;2022-12-18T05:45:57;100377.22;;;-6.75;100.00
30554;BME280;17335;50.720;7.452;2022-12-18T05:48:24;100384.97;;;-6.66;100.00
30554;BME280;17335;50.720;7.452;2022-12-18T05:50:51;100379.75;;;-6.65;100.00
30554;BME280;17335;50.720;7.452;2022-12-18T05:53:20;100384.97;;;-6.65;100.00
30554;BME280;17335;50.720;7.452;2022-12-18T05:55:47;100396.16;;;-6.52;100.00
30554;BME280;17335;50.720;7.452;2022-12-18T05:58:14;100381.34;;;-6.48;100.00
30554;BME280;17335;50.720;7.452;2022-12-18T06:00:45;100396.94;;;-6.36;100.00
30554;BME280;17335;50.720;7.452;2022-12-18T06:03:12;100388.22;;;-6.39;100.00
30554;BME280;17335;50.720;7.452;2022-12-18T06:05:41;100407.41;;;-6.37;100.00
30554;BME280;17335;50.720;7.452;2022-12-18T06:08:08;100406.50;;;-6.36;100.00
30554;BME280;17335;50.720;7.452;2022-12-18T06:10:35;100403.88;;;-6.36;100.00
30554;BME280;17335;50.720;7.452;2022-12-18T06:13:01;100408.22;;;-6.32;100.00
30554;BME280;17335;50.720;7.452;2022-12-18T06:15:27;100420.38;;;-6.25;100.00
30554;BME280;17335;50.720;7.452;2022-12-18T06:17:54;100431.66;;;-6.23;100.00
30554;BME280;17335;50.720;7.452;2022-12-18T06:20:20;100439.47;;;-6.17;100.00
30554;BME280;17335;50.720;7.452;2022-12-18T06:22:47;100451.66;;;-6.17;100.00
30554;BME280;17335;50.720;7.452;2022-12-18T06:25:13;100450.06;;;-6.34;100.00
30554;BME280;17335;50.720;7.452;2022-12-18T06:27:40;100447.47;;;-6.42;100.00
30554;BME280;17335;50.720;7.452;2022-12-18T06:30:08;100441.38;;;-6.41;100.00
30554;BME280;17335;50.720;7.452;2022-12-18T06:32:34;100456.25;;;-6.50;100.00
30554;BME280;17335;50.720;7.452;2022-12-18T06:35:01;100442.38;;;-6.58;100.00
30554;BME280;17335;50.720;7.452;2022-12-18T06:37:27;100453.72;;;-6.61;100.00
30554;BME280;17335;50.720;7.452;2022-12-18T06:39:54;100451.94;;;-6.56;100.00
30554;BME280;17335;50.720;7.452;2022-12-18T06:42:22;100451.94;;;-6.53;100.00
30554;BME280;17335;50.720;7.452;2022-12-18T06:44:49;100447.69;;;-6.74;100.00
30554;BME280;17335;50.720;7.452;2022-12-18T06:47:15;100456.44;;;-6.80;100.00
30554;BME280;17335;50.720;7.452;2022-12-18T06:49:42;100458.16;;;-6.75;100.00
30554;BME280;17335;50.720;7.452;2022-12-18T06:52:09;100453.78;;;-6.73;100.00
30554;BME280;17335;50.720;7.452;2022-12-18T06:54:35;100447.72;;;-6.75;100.00
30554;BME280;17335;50.720;7.452;2022-12-18T06:57:02;100449.50;;;-6.90;100.00
30554;BME280;17335;50.720;7.452;2022-12-18T06:59:28;100433.81;;;-6.82;100.00
30554;BME280;17335;50.720;7.452;2022-12-18T07:01:55;100428.63;;;-6.91;100.00
30554;BME280;17335;50.720;7.452;2022-12-18T07:04:28;100431.22;;;-6.81;100.00
30554;BME280;17335;50.720;7.452;2022-12-18T07:06:55;100420.78;;;-6.82;100.00
30554;BME280;17335;50.720;7.452;2022-12-18T07:09:21;100419.03;;;-6.86;100.00
30554;BME280;17335;50.720;7.452;2022-12-18T07:11:48;100419.88;;;-6.81;100.00
30554;BME280;17335;50.720;7.452;2022-12-18T07:14:14;100424.25;;;-6.85;100.00
30554;BME280;17335;50.720;7.452;2022-12-18T07:16:40;100424.25;;;-6.85;100.00
30554;BME280;17335;50.720;7.452;2022-12-18T07:19:07;100427.66;;;-6.70;100.00
30554;BME280;17335;50.720;7.452;2022-12-18T07:21:33;100431.16;;;-6.74;100.00
30554;BME280;17335;50.720;7.452;2022-12-18T07:24:00;100429.38;;;-6.66;100.00
30554;BME280;17335;50.720;7.452;2022-12-18T07:26:26;100438.06;;;-6.66;100.00
30554;BME280;17335;50.720;7.452;2022-12-18T07:28:55;100449.41;;;-6.67;100.00
30554;BME280;17335;50.720;7.452;2022-12-18T07:31:22;100454.63;;;-6.70;100.00
30554;BME280;17335;50.720;7.452;2022-12-18T07:33:50;100445.03;;;-6.68;100.00
30554;BME280;17335;50.720;7.452;2022-12-18T07:36:16;100451.97;;;-6.62;100.00
30554;BME280;17335;50.720;7.452;2022-12-18T07:38:46;100460.69;;;-6.65;100.00
30554;BME280;17335;50.720;7.452;2022-12-18T07:41:13;100455.47;;;-6.60;100.00
30554;BME280;17335;50.720;7.452;2022-12-18T07:43:40;100459.81;;;-6.62;100.00
30554;BME280;17335;50.720;7.452;2022-12-18T07:46:08;100459.81;;;-6.64;100.00
30554;BME280;17335;50.720;7.452;2022-12-18T07:48:35;100451.13;;;-6.66;100.00
30554;BME280;17335;50.720;7.452;2022-12-18T07:51:04;100459.88;;;-6.71;100.00
30554;BME280;17335;50.720;7.452;2022-12-18T07:53:31;100460.59;;;-6.48;100.00
30554;BME280;17335;50.720;7.452;2022-12-18T07:56:04;100452.75;;;-6.48;100.00
30554;BME280;17335;50.720;7.452;2022-12-18T07:58:51;100448.41;;;-6.52;100.00
30554;BME280;17335;50.720;7.452;2022-12-18T08:01:17;100451.88;;;-6.50;100.00
30554;BME280;17335;50.720;7.452;2022-12-18T08:03:46;100439.69;;;-6.48;100.00
30554;BME280;17335;50.720;7.452;2022-12-18T08:06:13;100444.88;;;-6.45;100.00
30554;BME280;17335;50.720;7.452;2022-12-18T08:08:39;100445.66;;;-6.29;100.00
30554;BME280;17335;50.720;7.452;2022-12-18T08:11:07;100434.41;;;-6.42;100.00
30554;BME280;17335;50.720;7.452;2022-12-18T08:13:34;100439.63;;;-6.38;100.00
30554;BME280;17335;50.720;7.452;2022-12-18T08:16:05;100439.72;;;-6.54;100.00
30554;BME280;17335;50.720;7.452;2022-12-18T08:18:32;100426.47;;;-6.28;100.00
30554;BME280;17335;50.720;7.452;2022-12-18T08:21:08;100407.31;;;-6.27;100.00
30554;BME280;17335;50.720;7.452;2022-12-18T08:23:34;100404.69;;;-6.25;100.00
30554;BME280;17335;50.720;7.452;2022-12-18T08:26:07;100402.91;;;-6.23;100.00
30554;BME280;17335;50.720;7.452;2022-12-18T08:28:34;100401.13;;;-6.18;100.00
30554;BME280;17335;50.720;7.452;2022-12-18T08:31:00;100388.91;;;-6.16;100.00
30554;BME280;17335;50.720;7.452;2022-12-18T08:33:27;100381.88;;;-6.08;100.00
30554;BME280;17335;50.720;7.452;2022-12-18T08:35:53;100396.59;;;-6.00;100.00
30554;BME280;17335;50.720;7.452;2022-12-18T08:38:20;100383.44;;;-5.91;100.00
30554;BME280;17335;50.720;7.452;2022-12-18T08:40:46;100378.28;;;-5.96;100.00
30554;BME280;17335;50.720;7.452;2022-12-18T08:43:13;100382.56;;;-5.93;100.00
30554;BME280;17335;50.720;7.452;2022-12-18T08:45:58;100362.38;;;-5.77;100.00
30554;BME280;17335;50.720;7.452;2022-12-18T08:48:24;100364.06;;;-5.75;100.00
30554;BME280;17335;50.720;7.452;2022-12-18T08:50:58;100364.91;;;-5.73;100.00
30554;BME280;17335;50.720;7.452;2022-12-18T08:53:25;100376.28;;;-5.74;100.00
30554;BME280;17335;50.720;7.452;2022-12-18T08:55:59;100374.50;;;-5.72;100.00
30554;BME280;17335;50.720;7.452;2022-12-18T08:58:25;100389.22;;;-5.63;100.00
30554;BME280;17335;50.720;7.452;2022-12-18T09:00:52;100382.06;;;-5.49;100.00
30554;BME280;17335;50.720;7.452;2022-12-18T09:03:19;100381.41;;;-5.68;100.00
30554;BME280;17335;50.720;7.452;2022-12-18T09:05:45;100397.88;;;-5.56;100.00
30554;BME280;17335;50.720;7.452;2022-12-18T09:08:12;100400.47;;;-5.56;100.00
30554;BME280;17335;50.720;7.452;2022-12-18T09:10:48;100393.34;;;-5.45;100.00
30554;BME280;17335;50.720;7.452;2022-12-18T09:13:15;100392.47;;;-5.41;100.00
30554;BME280;17335;50.720;7.452;2022-12-18T09:15:43;100384.56;;;-5.38;100.00
30554;BME280;17335;50.720;7.452;2022-12-18T09:18:09;100380.91;;;-5.24;100.00
30554;BME280;17335;50.720;7.452;2022-12-18T09:20:36;100380.81;;;-5.18;100.00
30554;BME280;17335;50.720;7.452;2022-12-18T09:23:04;100370.16;;;-5.04;100.00
30554;BME280;17335;50.720;7.452;2022-12-18T09:25:32;100366.59;;;-4.99;100.00
30554;BME280;17335;50.720;7.452;2022-12-18T09:28:06;100383.06;;;-4.91;100.00
30554;BME280;17335;50.720;7.452;2022-12-18T09:30:33;100375.13;;;-4.83;100.00
30554;BME280;17335;50.720;7.452;2022-12-18T09:33:00;100370.69;;;-4.79;100.00
30554;BME280;17335;50.720;7.452;2022-12-18T09:35:27;100368.00;;;-4.76;100.00
30554;BME280;17335;50.720;7.452;2022-12-18T09:37:54;100366.19;;;-4.71;100.00
30554;BME280;17335;50.720;7.452;2022-12-18T09:40:24;100363.44;;;-4.63;100.00
30554;BME280;17335;50.720;7.452;2022-12-18T09:42:55;100366.81;;;-4.54;100.00
30554;BME280;17335;50.720;7.452;2022-12-18T09:45:23;100348.28;;;-4.43;100.00
30554;BME280;17335;50.720;7.452;2022-12-18T09:47:52;100342.84;;;-4.32;100.00
30554;BME280;17335;50.720;7.452;2022-12-18T09:50:31;100330.47;;;-4.24;100.00
30554;BME280;17335;50.720;7.452;2022-12-18T09:53:04;100321.56;;;-4.13;100.00
30554;BME280;17335;50.720;7.452;2022-12-18T09:55:40;100328.44;;;-4.09;100.00
30554;BME280;17335;50.720;7.452;2022-12-18T09:58:20;100324.84;;;-4.02;100.00
30554;BME280;17335;50.720;7.452;2022-12-18T10:00:52;100326.50;;;-3.98;100.00
30554;BME280;17335;50.720;7.452;2022-12-18T10:03:19;100327.22;;;-3.90;100.00
30554;BME280;17335;50.720;7.452;2022-12-18T10:11:15;100309.41;;;-3.74;100.00
30554;BME280;17335;50.720;7.452;2022-12-18T10:13:52;100318.84;;;-3.64;100.00
30554;BME280;17335;50.720;7.452;2022-12-18T10:16:34;100310.13;;;-3.64;100.00
30554;BME280;17335;50.720;7.452;2022-12-18T10:19:21;100298.34;;;-3.46;100.00
30554;BME280;17335;50.720;7.452;2022-12-18T10:24:47;100276.44;;;-3.44;100.00
30554;BME280;17335;50.720;7.452;2022-12-18T10:27:24;100285.94;;;-3.38;100.00
30554;BME280;17335;50.720;7.452;2022-12-18T10:29:52;100276.34;;;-3.41;100.00
30554;BME280;17335;50.720;7.452;2022-12-18T10:32:22;100277.81;;;-3.27;100.00
30554;BME280;17335;50.720;7.452;2022-12-18T10:34:53;100277.75;;;-3.24;100.00
30554;BME280;17335;50.720;7.452;2022-12-18T10:37:28;100278.25;;;-3.08;100.00
30554;BME280;17335;50.720;7.452;2022-12-18T10:40:15;100283.53;;;-3.10;100.00
30554;BME280;17335;50.720;7.452;2022-12-18T10:43:03;100284.16;;;-2.98;100.00
30554;BME280;17335;50.720;7.452;2022-12-18T10:45:30;100290.34;;;-3.01;100.00
30554;BME280;17335;50.720;7.452;2022-12-18T10:47:56;100299.00;;;-2.97;100.00
30554;BME280;17335;50.720;7.452;2022-12-18T10:50:30;100287.03;;;-3.09;100.00
30554;BME280;17335;50.720;7.452;2022-12-18T10:53:26;100263.06;;;-2.95;100.00
30554;BME280;17335;50.720;7.452;2022-12-18T10:55:55;100240.38;;;-2.99;100.00
30554;BME280;17335;50.720;7.452;2022-12-18T10:58:26;100269.22;;;-2.96;100.00
30554;BME280;17335;50.720;7.452;2022-12-18T11:01:14;100274.75;;;-3.09;100.00
30554;BME280;17335;50.720;7.452;2022-12-18T11:04:00;100257.03;;;-2.99;100.00
30554;BME280;17335;50.720;7.452;2022-12-18T11:06:28;100259.75;;;-3.04;100.00
30554;BME280;17335;50.720;7.452;2022-12-18T11:09:04;100264.59;;;-2.85;100.00
30554;BME280;17335;50.720;7.452;2022-12-18T11:11:40;100273.34;;;-2.86;100.00
30554;BME280;17335;50.720;7.452;2022-12-18T11:14:17;100287.66;;;-2.99;100.00
30554;BME280;17335;50.720;7.452;2022-12-18T11:16:47;100270.00;;;-2.93;100.00
30554;BME280;17335;50.720;7.452;2022-12-18T11:19:36;100251.28;;;-2.79;100.00
30554;BME280;17335;50.720;7.452;2022-12-18T11:22:21;100255.56;;;-2.75;100.00
30554;BME280;17335;50.720;7.452;2022-12-18T11:24:58;100229.34;;;-2.78;100.00
30554;BME280;17335;50.720;7.452;2022-12-18T11:27:58;100246.94;;;-2.80;100.00
30554;BME280;17335;50.720;7.452;2022-12-18T11:32:58;100252.25;;;-2.83;100.00
30554;BME280;17335;50.720;7.452;2022-12-18T11:35:48;100256.22;;;-2.67;100.00
30554;BME280;17335;50.720;7.452;2022-12-18T11:38:23;100255.38;;;-2.67;100.00
30554;BME280;17335;50.720;7.452;2022-12-18T11:44:15;100271.94;;;-2.65;100.00
30554;BME280;17335;50.720;7.452;2022-12-18T11:46:55;100261.53;;;-2.68;100.00
30554;BME280;17335;50.720;7.452;2022-12-18T11:49:32;100265.22;;;-2.77;100.00
30554;BME280;17335;50.720;7.452;2022-12-18T11:52:11;100251.81;;;-2.65;100.00
30554;BME280;17335;50.720;7.452;2022-12-18T11:54:41;100250.09;;;-2.67;100.00
30554;BME280;17335;50.720;7.452;2022-12-18T11:59:59;100252.81;;;-2.70;100.00
30554;BME280;17335;50.720;7.452;2022-12-18T12:02:55;100255.63;;;-2.78;100.00
30554;BME280;17335;50.720;7.452;2022-12-18T12:08:53;100251.28;;;-2.79;100.00
30554;BME280;17335;50.720;7.452;2022-12-18T12:12:56;100240.81;;;-2.82;100.00
30554;BME280;17335;50.720;7.452;2022-12-18T12:15:06;100229.66;;;-2.90;100.00
30554;BME280;17335;50.720;7.452;2022-12-18T12:18:08;100248.94;;;-2.91;100.00
30554;BME280;17335;50.720;7.452;2022-12-18T12:26:18;100251.41;;;-2.84;100.00
30554;BME280;17335;50.720;7.452;2022-12-18T12:29:42;100241.81;;;-2.86;100.00
30554;BME280;17335;50.720;7.452;2022-12-18T12:34:34;100247.53;;;-3.06;100.00
30554;BME280;17335;50.720;7.452;2022-12-18T12:39:46;100239.63;;;-3.05;100.00
30554;BME280;17335;50.720;7.452;2022-12-18T12:42:37;100241.88;;;-2.89;100.00
30554;BME280;17335;50.720;7.452;2022-12-18T12:45:29;100232.19;;;-2.87;100.00
30554;BME280;17335;50.720;7.452;2022-12-18T12:48:01;100233.31;;;-2.97;100.00
30554;BME280;17335;50.720;7.452;2022-12-18T12:50:33;100232.47;;;-2.98;100.00
30554;BME280;17335;50.720;7.452;2022-12-18T12:53:01;100240.19;;;-2.90;100.00
30554;BME280;17335;50.720;7.452;2022-12-18T12:55:32;100238.44;;;-2.91;100.00
30554;BME280;17335;50.720;7.452;2022-12-18T12:58:04;100224.63;;;-2.99;100.00
30554;BME280;17335;50.720;7.452;2022-12-18T13:00:40;100230.88;;;-3.04;100.00
30554;BME280;17335;50.720;7.452;2022-12-18T13:03:12;100225.84;;;-3.13;100.00
30554;BME280;17335;50.720;7.452;2022-12-18T13:06:00;100230.34;;;-3.18;100.00
30554;BME280;17335;50.720;7.452;2022-12-18T13:08:51;100220.41;;;-3.05;100.00
30554;BME280;17335;50.720;7.452;2022-12-18T13:11:47;100209.38;;;-3.19;100.00
30554;BME280;17335;50.720;7.452;2022-12-18T13:14:38;100211.28;;;-3.26;100.00
30554;BME280;17335;50.720;7.452;2022-12-18T13:19:41;100201.50;;;-3.19;100.00
30554;BME280;17335;50.720;7.452;2022-12-18T13:25:35;100197.53;;;-3.37;100.00
30554;BME280;17335;50.720;7.452;2022-12-18T13:41:22;100184.28;;;-3.33;100.00
30554;BME280;17335;50.720;7.452;2022-12-18T13:43:51;100201.91;;;-3.38;100.00
30554;BME280;17335;50.720;7.452;2022-12-18T13:46:19;100186.94;;;-3.34;100.00
30554;BME280;17335;50.720;7.452;2022-12-18T13:51:55;100197.56;;;-3.39;100.00
30554;BME280;17335;50.720;7.452;2022-12-18T13:54:37;100215.94;;;-3.39;100.00
30554;BME280;17335;50.720;7.452;2022-12-18T13:57:28;100215.94;;;-3.39;100.00
30554;BME280;17335;50.720;7.452;2022-12-18T13:59:56;100222.75;;;-3.32;100.00
30554;BME280;17335;50.720;7.452;2022-12-18T14:02:25;100219.28;;;-3.32;100.00
30554;BME280;17335;50.720;7.452;2022-12-18T14:04:53;100224.41;;;-3.26;100.00
30554;BME280;17335;50.720;7.452;2022-12-18T14:07:28;100227.22;;;-3.35;100.00
30554;BME280;17335;50.720;7.452;2022-12-18T14:10:02;100219.38;;;-3.37;100.00
30554;BME280;17335;50.720;7.452;2022-12-18T14:12:50;100228.16;;;-3.38;100.00
30554;BME280;17335;50.720;7.452;2022-12-18T14:20:47;100206.25;;;-3.37;100.00
30554;BME280;17335;50.720;7.452;2022-12-18T14:23:27;100186.28;;;-3.44;100.00
30554;BME280;17335;50.720;7.452;2022-12-18T14:25:54;100189.03;;;-3.49;100.00
30554;BME280;17335;50.720;7.452;2022-12-18T14:28:23;100202.19;;;-3.49;100.00